createdAt,value
2023-05-06T00:01:40.861Z,57.06
2023-05-06T00:04:09.213Z,57.20
2023-05-06T00:06:37.628Z,57.22
2023-05-06T00:09:05.860Z,57.31
2023-05-06T00:11:34.126Z,57.04
2023-05-06T00:14:02.441Z,57.22
2023-05-06T00:16:30.901Z,56.83
2023-05-06T00:18:59.323Z,57.02
2023-05-06T00:21:27.736Z,56.87
2023-05-06T00:23:56.222Z,56.66
2023-05-06T00:26:25.058Z,56.58
2023-05-06T00:28:54.793Z,56.45
2023-05-06T00:31:23.113Z,56.59
2023-05-06T00:33:51.344Z,56.57
2023-05-06T00:36:19.516Z,56.40
2023-05-06T00:38:47.853Z,56.47
2023-05-06T00:41:16.521Z,56.01
2023-05-06T00:43:44.809Z,56.40
2023-05-06T00:46:16.300Z,56.51
2023-05-06T00:48:44.942Z,56.99
2023-05-06T00:51:13.619Z,56.51
2023-05-06T00:53:41.956Z,56.35
2023-05-06T00:56:10.685Z,56.36
2023-05-06T00:58:39.377Z,56.23
2023-05-06T01:01:08.577Z,56.02
2023-05-06T01:03:38.310Z,56.20
2023-05-06T01:06:31.324Z,56.39
2023-05-06T01:09:10.868Z,56.07
2023-05-06T01:11:47.360Z,56.00
2023-05-06T01:14:25.097Z,56.08
2023-05-06T01:16:56.660Z,56.02
2023-05-06T01:19:43.419Z,56.36
2023-05-06T01:22:13.267Z,56.20
2023-05-06T01:24:44.102Z,56.01
2023-05-06T01:27:13.891Z,56.11
2023-05-06T01:29:44.329Z,56.02
2023-05-06T01:32:52.653Z,56.13
2023-05-06T01:35:32.927Z,56.27
2023-05-06T01:38:38.561Z,57.05
2023-05-06T01:41:08.989Z,56.69
2023-05-06T01:43:41.912Z,57.01
2023-05-06T01:46:21.077Z,56.55
2023-05-06T01:48:55.341Z,57.00
2023-05-06T01:51:25.002Z,57.48
2023-05-06T01:53:53.259Z,56.86
2023-05-06T01:56:21.928Z,56.80
2023-05-06T01:58:50.159Z,57.60
2023-05-06T02:01:18.387Z,56.74
2023-05-06T02:03:46.859Z,56.85
2023-05-06T02:06:15.606Z,57.29
2023-05-06T02:08:45.105Z,57.01
2023-05-06T02:11:17.580Z,57.18
2023-05-06T02:13:46.446Z,57.19
2023-05-06T02:16:14.673Z,57.66
2023-05-06T02:18:43.754Z,57.01
2023-05-06T02:21:12.502Z,57.99
2023-05-06T02:23:40.714Z,57.94
2023-05-06T02:26:08.974Z,58.11
2023-05-06T02:28:37.157Z,57.88
2023-05-06T02:31:06.013Z,57.59
2023-05-06T02:33:34.306Z,57.38
2023-05-06T02:36:02.412Z,57.87
2023-05-06T02:38:30.504Z,57.99
2023-05-06T02:40:58.639Z,57.70
2023-05-06T02:43:27.721Z,57.86
2023-05-06T02:45:55.886Z,57.24
2023-05-06T02:48:24.003Z,57.68
2023-05-06T02:50:52.187Z,58.20
2023-05-06T02:53:20.351Z,57.78
2023-05-06T02:55:48.509Z,58.06
2023-05-06T02:58:16.750Z,57.68
2023-05-06T03:00:44.996Z,57.78
2023-05-06T03:03:13.131Z,57.46
2023-05-06T03:05:41.254Z,57.97
2023-05-06T03:08:09.487Z,57.68
2023-05-06T03:10:38.259Z,57.92
2023-05-06T03:13:06.598Z,57.67
2023-05-06T03:15:35.165Z,57.76
2023-05-06T03:18:03.470Z,57.37
2023-05-06T03:20:31.918Z,57.56
2023-05-06T03:23:00.596Z,57.28
2023-05-06T03:25:28.740Z,58.25
2023-05-06T03:27:57.553Z,57.86
2023-05-06T03:30:25.676Z,57.83
2023-05-06T03:32:57.203Z,57.75
2023-05-06T03:35:30.953Z,57.62
2023-05-06T03:38:00.788Z,57.63
2023-05-06T03:40:34.778Z,57.27
2023-05-06T03:43:03.313Z,57.59
2023-05-06T03:45:31.529Z,57.01
2023-05-06T03:48:00.590Z,57.29
2023-05-06T03:50:28.828Z,57.78
2023-05-06T03:52:57.094Z,57.61
2023-05-06T03:55:26.155Z,57.51
2023-05-06T03:57:54.279Z,57.22
2023-05-06T04:00:23.105Z,57.36
2023-05-06T04:02:52.211Z,57.40
2023-05-06T04:05:24.947Z,56.67
2023-05-06T04:07:53.119Z,56.52
2023-05-06T04:10:21.828Z,56.62
2023-05-06T04:12:50.512Z,56.82
2023-05-06T04:15:22.319Z,56.62
2023-05-06T04:17:50.647Z,56.46
2023-05-06T04:20:19.033Z,56.11
2023-05-06T04:22:48.130Z,55.84
2023-05-06T04:25:18.517Z,56.29
2023-05-06T04:27:47.083Z,55.73
2023-05-06T04:30:15.912Z,56.01
2023-05-06T04:32:44.237Z,55.39
2023-05-06T04:35:12.637Z,55.67
2023-05-06T04:37:42.150Z,56.10
2023-05-06T04:40:15.854Z,55.33
2023-05-06T04:42:44.517Z,55.26
2023-05-06T04:45:18.090Z,54.83
2023-05-06T04:47:48.759Z,54.82
2023-05-06T04:50:17.521Z,54.31
2023-05-06T04:52:45.896Z,54.14
2023-05-06T04:55:14.131Z,54.12
2023-05-06T04:57:47.045Z,53.91
2023-05-06T05:00:16.579Z,54.03
2023-05-06T05:02:44.947Z,53.51
2023-05-06T05:05:14.381Z,53.56
2023-05-06T05:07:43.177Z,54.00
2023-05-06T05:10:11.651Z,53.76
2023-05-06T05:12:39.991Z,53.32
2023-05-06T05:15:08.981Z,53.05
2023-05-06T05:17:37.954Z,52.78
2023-05-06T05:20:07.804Z,53.07
2023-05-06T05:22:36.030Z,52.52
2023-05-06T05:25:07.015Z,52.31
2023-05-06T05:27:36.612Z,52.40
2023-05-06T05:30:05.368Z,52.32
2023-05-06T05:32:34.549Z,52.12
2023-05-06T05:35:02.698Z,52.36
2023-05-06T05:37:31.522Z,52.66
2023-05-06T05:39:59.910Z,52.18
2023-05-06T05:42:28.252Z,51.80
2023-05-06T05:44:57.611Z,51.66
2023-05-06T05:47:26.896Z,51.49
2023-05-06T05:49:55.157Z,51.33
2023-05-06T05:52:25.990Z,51.03
2023-05-06T05:54:54.462Z,50.97
2023-05-06T05:57:22.674Z,51.19
2023-05-06T05:59:51.212Z,50.73
2023-05-06T06:02:19.382Z,50.91
2023-05-06T06:04:48.227Z,50.55
2023-05-06T06:07:16.492Z,50.44
2023-05-06T06:09:46.956Z,50.10
2023-05-06T06:12:15.932Z,49.74
2023-05-06T06:14:48.159Z,49.88
2023-05-06T06:17:18.429Z,49.98
2023-05-06T06:19:47.261Z,49.67
2023-05-06T06:22:15.398Z,49.23
2023-05-06T06:24:43.985Z,49.35
2023-05-06T06:27:12.522Z,49.78
2023-05-06T06:29:40.920Z,49.64
2023-05-06T06:32:09.343Z,49.29
2023-05-06T06:34:37.574Z,48.95
2023-05-06T06:37:07.810Z,48.68
2023-05-06T06:39:36.301Z,49.75
2023-05-06T06:42:05.008Z,48.53
2023-05-06T06:44:37.793Z,48.33
2023-05-06T06:47:06.139Z,47.99
2023-05-06T06:49:34.289Z,47.32
2023-05-06T06:52:02.484Z,47.09
2023-05-06T06:54:30.657Z,47.70
2023-05-06T06:56:58.784Z,47.19
2023-05-06T06:59:26.977Z,47.09
2023-05-06T07:01:55.347Z,47.63
2023-05-06T07:04:25.886Z,46.86
2023-05-06T07:06:54.130Z,46.62
2023-05-06T07:09:22.250Z,46.52
2023-05-06T07:11:50.358Z,46.02
2023-05-06T07:14:18.509Z,46.25
2023-05-06T07:16:48.672Z,45.83
2023-05-06T07:19:18.327Z,45.88
2023-05-06T07:21:46.523Z,45.22
2023-05-06T07:24:14.789Z,44.73
2023-05-06T07:26:43.988Z,44.26
2023-05-06T07:29:12.101Z,43.88
2023-05-06T07:31:40.341Z,44.76
2023-05-06T07:34:08.544Z,44.19
2023-05-06T07:36:40.931Z,43.67
2023-05-06T07:39:09.784Z,42.77
2023-05-06T07:41:38.236Z,42.59
2023-05-06T07:44:07.095Z,41.86
2023-05-06T07:46:35.699Z,41.93
2023-05-06T07:49:03.921Z,42.01
2023-05-06T07:51:32.084Z,41.73
2023-05-06T07:54:00.241Z,41.24
2023-05-06T07:56:28.370Z,40.87
2023-05-06T07:58:56.776Z,40.79
2023-05-06T08:01:25.767Z,41.26
2023-05-06T08:03:53.989Z,41.10
2023-05-06T08:06:22.520Z,41.19
2023-05-06T08:08:50.901Z,41.44
2023-05-06T08:11:19.495Z,41.26
2023-05-06T08:13:47.763Z,41.24
2023-05-06T08:16:16.500Z,41.35
2023-05-06T08:18:44.678Z,40.65
2023-05-06T08:21:12.821Z,41.22
2023-05-06T08:23:41.292Z,40.74
2023-05-06T08:26:09.432Z,40.35
2023-05-06T08:28:37.747Z,40.55
2023-05-06T08:31:06.022Z,40.23
2023-05-06T08:33:34.518Z,39.63
2023-05-06T08:36:02.797Z,39.52
2023-05-06T08:38:31.122Z,39.92
2023-05-06T08:41:07.067Z,40.60
2023-05-06T08:43:44.543Z,40.21
2023-05-06T08:46:13.623Z,39.25
2023-05-06T08:48:42.031Z,39.09
2023-05-06T08:51:14.231Z,39.37
2023-05-06T08:53:49.499Z,39.86
2023-05-06T08:56:18.386Z,39.23
2023-05-06T08:58:47.527Z,39.18
2023-05-06T09:01:16.576Z,38.99
2023-05-06T09:03:44.896Z,38.97
2023-05-06T09:06:13.043Z,38.78
2023-05-06T09:08:41.673Z,39.00
2023-05-06T09:11:26.520Z,38.84
2023-05-06T09:14:11.642Z,38.99
2023-05-06T09:16:42.615Z,39.62
2023-05-06T09:19:12.592Z,40.49
2023-05-06T09:21:43.292Z,40.13
2023-05-06T09:24:13.238Z,39.59
2023-05-06T09:26:43.662Z,39.76
2023-05-06T09:29:12.353Z,39.41
2023-05-06T09:31:45.837Z,39.00
2023-05-06T09:34:15.604Z,38.68
2023-05-06T09:36:44.516Z,39.02
2023-05-06T09:39:13.800Z,38.68
2023-05-06T09:41:43.314Z,38.80
2023-05-06T09:44:11.688Z,38.81
2023-05-06T09:46:41.446Z,38.63
2023-05-06T09:49:10.383Z,38.47
2023-05-06T09:51:39.810Z,38.34
2023-05-06T09:54:08.398Z,38.97
2023-05-06T09:56:37.726Z,38.75
2023-05-06T09:59:06.903Z,38.34
2023-05-06T10:01:37.645Z,38.33
2023-05-06T10:04:13.138Z,38.51
2023-05-06T10:06:41.622Z,38.59
2023-05-06T10:09:10.738Z,39.51
2023-05-06T10:11:39.546Z,40.03
2023-05-06T10:14:09.326Z,39.34
2023-05-06T10:16:40.234Z,39.56
2023-05-06T10:19:09.537Z,39.95
2023-05-06T10:21:42.531Z,39.23
2023-05-06T10:24:19.430Z,39.30
2023-05-06T10:26:48.426Z,39.24
2023-05-06T10:29:17.678Z,39.02
2023-05-06T10:31:55.203Z,39.29
2023-05-06T10:34:25.532Z,39.46
2023-05-06T10:36:58.027Z,39.65
2023-05-06T10:39:26.912Z,39.35
2023-05-06T10:41:55.202Z,39.27
2023-05-06T10:45:04.140Z,39.01
2023-05-06T10:47:57.373Z,40.76
2023-05-06T10:50:26.933Z,39.98
2023-05-06T10:52:57.062Z,39.91
2023-05-06T10:55:32.451Z,39.52
2023-05-06T10:58:03.889Z,38.91
2023-05-06T11:00:33.235Z,39.17
2023-05-06T11:03:12.848Z,39.52
2023-05-06T11:05:52.245Z,38.67
2023-05-06T11:08:26.864Z,38.96
2023-05-06T11:10:55.584Z,39.21
2023-05-06T11:13:25.261Z,38.77
2023-05-06T11:15:58.357Z,39.54
2023-05-06T11:18:37.193Z,39.65
2023-05-06T11:21:08.586Z,39.22
2023-05-06T11:23:42.934Z,39.20
2023-05-06T11:26:12.484Z,39.52
2023-05-06T11:28:44.427Z,39.45
2023-05-06T11:31:13.859Z,39.50
2023-05-06T11:33:49.604Z,39.76
2023-05-06T11:36:18.879Z,39.13
2023-05-06T11:38:53.068Z,38.92
2023-05-06T11:41:23.298Z,39.13
2023-05-06T11:43:53.547Z,40.86
2023-05-06T11:46:23.701Z,40.77
2023-05-06T11:48:51.859Z,39.68
2023-05-06T11:51:23.511Z,39.66
2023-05-06T11:53:52.786Z,39.69
2023-05-06T11:56:20.940Z,38.64
2023-05-06T11:58:49.115Z,38.44
2023-05-06T12:01:17.549Z,38.17
2023-05-06T12:03:45.995Z,38.83
2023-05-06T12:06:14.294Z,38.46
2023-05-06T12:08:42.824Z,38.52
2023-05-06T12:11:11.932Z,38.58
2023-05-06T12:13:40.780Z,38.80
2023-05-06T12:16:10.085Z,38.62
2023-05-06T12:18:38.580Z,38.79
2023-05-06T12:21:07.487Z,38.97
2023-05-06T12:23:35.709Z,38.76
2023-05-06T12:26:05.907Z,38.08
2023-05-06T12:28:36.464Z,37.83
2023-05-06T12:31:21.066Z,37.41
2023-05-06T12:33:50.341Z,38.38
2023-05-06T12:36:19.026Z,38.16
2023-05-06T12:38:58.470Z,38.46
2023-05-06T12:41:44.514Z,39.19
2023-05-06T12:44:34.227Z,39.01
2023-05-06T12:47:03.721Z,38.66
2023-05-06T12:49:54.900Z,38.72
2023-05-06T12:52:24.687Z,38.61
2023-05-06T12:54:53.236Z,38.57
2023-05-06T12:57:22.240Z,38.27
2023-05-06T12:59:50.767Z,38.65
2023-05-06T13:02:19.068Z,37.98
2023-05-06T13:04:47.316Z,37.88
2023-05-06T13:07:15.709Z,38.69
2023-05-06T13:09:44.700Z,38.43
2023-05-06T13:12:13.311Z,38.09
2023-05-06T13:14:41.463Z,37.79
2023-05-06T13:17:09.879Z,38.01
2023-05-06T13:19:38.216Z,38.18
2023-05-06T13:22:06.394Z,38.35
2023-05-06T13:24:34.565Z,38.93
2023-05-06T13:27:02.730Z,38.98
2023-05-06T13:29:30.989Z,38.58
2023-05-06T13:31:59.336Z,38.62
2023-05-06T13:34:28.033Z,38.46
2023-05-06T13:36:56.890Z,38.46
2023-05-06T13:39:25.686Z,38.36
2023-05-06T13:41:54.326Z,38.43
2023-05-06T13:44:22.853Z,38.42
2023-05-06T13:46:51.256Z,38.99
2023-05-06T13:49:19.481Z,38.73
2023-05-06T13:51:47.838Z,38.64
2023-05-06T13:54:16.534Z,38.77
2023-05-06T13:56:44.872Z,39.16
2023-05-06T13:59:14.251Z,39.26
2023-05-06T14:01:43.071Z,39.80
2023-05-06T14:04:11.448Z,39.73
2023-05-06T14:06:39.715Z,40.53
2023-05-06T14:09:08.301Z,40.91
2023-05-06T14:11:36.505Z,40.23
2023-05-06T14:14:05.664Z,40.09
2023-05-06T14:16:33.898Z,40.09
2023-05-06T14:19:02.213Z,40.46
2023-05-06T14:21:30.907Z,40.62
2023-05-06T14:23:59.034Z,39.49
2023-05-06T14:26:27.551Z,40.07
2023-05-06T14:28:55.753Z,40.23
2023-05-06T14:31:24.584Z,40.94
2023-05-06T14:33:52.703Z,41.90
2023-05-06T14:36:21.004Z,41.17
2023-05-06T14:38:49.145Z,41.06
2023-05-06T14:41:17.252Z,41.63
2023-05-06T14:43:45.474Z,41.55
2023-05-06T14:46:14.795Z,41.95
2023-05-06T14:48:43.450Z,41.93
2023-05-06T14:51:11.731Z,41.86
2023-05-06T14:53:40.084Z,42.13
2023-05-06T14:56:10.665Z,41.97
2023-05-06T14:58:39.541Z,42.04
2023-05-06T15:01:07.750Z,42.09
2023-05-06T15:03:36.508Z,42.48
2023-05-06T15:06:05.507Z,42.88
2023-05-06T15:08:33.669Z,42.95
2023-05-06T15:11:04.199Z,42.89
2023-05-06T15:13:32.636Z,43.07
2023-05-06T15:16:00.862Z,43.11
2023-05-06T15:18:29.174Z,43.43
2023-05-06T15:21:01.148Z,42.91
2023-05-06T15:23:29.455Z,43.03
2023-05-06T15:25:58.380Z,43.32
2023-05-06T15:28:26.595Z,43.29
2023-05-06T15:30:54.876Z,43.13
2023-05-06T15:33:23.458Z,43.61
2023-05-06T15:35:51.630Z,43.96
2023-05-06T15:38:19.872Z,43.71
2023-05-06T15:40:52.431Z,43.33
2023-05-06T15:43:24.126Z,43.55
2023-05-06T15:45:53.155Z,43.55
2023-05-06T15:48:21.554Z,43.82
2023-05-06T15:50:49.708Z,43.60
2023-05-06T15:53:19.321Z,43.72
2023-05-06T15:55:54.568Z,44.26
2023-05-06T15:58:25.502Z,43.94
2023-05-06T16:00:54.089Z,43.66
2023-05-06T16:03:22.290Z,43.80
2023-05-06T16:05:54.112Z,43.35
2023-05-06T16:08:22.309Z,43.44
2023-05-06T16:10:54.380Z,43.62
2023-05-06T16:13:23.025Z,43.41
2023-05-06T16:15:54.467Z,44.13
2023-05-06T16:18:22.554Z,43.65
2023-05-06T16:20:50.795Z,43.63
2023-05-06T16:23:19.685Z,43.87
2023-05-06T16:25:48.258Z,43.82
2023-05-06T16:28:17.010Z,43.25
2023-05-06T16:30:46.470Z,43.49
2023-05-06T16:33:14.884Z,43.13
2023-05-06T16:35:43.235Z,43.81
2023-05-06T16:38:11.532Z,43.95
2023-05-06T16:40:47.808Z,43.62
2023-05-06T16:43:16.175Z,43.66
2023-05-06T16:45:45.772Z,43.55
2023-05-06T16:48:15.081Z,43.64
2023-05-06T16:50:43.273Z,43.77
2023-05-06T16:53:11.427Z,44.03
2023-05-06T16:55:39.761Z,44.09
2023-05-06T16:58:07.853Z,44.03
2023-05-06T17:00:36.033Z,44.10
2023-05-06T17:03:04.719Z,44.12
2023-05-06T17:05:33.690Z,44.02
2023-05-06T17:08:03.606Z,44.10
2023-05-06T17:10:31.798Z,44.36
2023-05-06T17:13:00.093Z,44.44
2023-05-06T17:15:28.345Z,44.55
2023-05-06T17:17:56.719Z,44.33
2023-05-06T17:20:25.363Z,44.49
2023-05-06T17:22:53.494Z,44.73
2023-05-06T17:25:21.709Z,44.86
2023-05-06T17:27:49.877Z,44.60
2023-05-06T17:30:18.242Z,44.70
2023-05-06T17:32:46.545Z,44.74
2023-05-06T17:35:15.105Z,44.86
2023-05-06T17:37:43.214Z,45.15
2023-05-06T17:40:13.145Z,45.13
2023-05-06T17:42:41.362Z,45.12
2023-05-06T17:45:10.130Z,45.90
2023-05-06T17:47:38.497Z,45.58
2023-05-06T17:50:07.044Z,45.67
2023-05-06T17:52:35.246Z,45.60
2023-05-06T17:55:15.486Z,45.55
2023-05-06T17:57:45.320Z,45.77
2023-05-06T18:00:14.172Z,45.68
2023-05-06T18:02:44.118Z,46.07
2023-05-06T18:05:13.509Z,46.14
2023-05-06T18:07:42.171Z,46.08
2023-05-06T18:10:10.932Z,46.31
2023-05-06T18:12:39.214Z,46.39
2023-05-06T18:15:08.725Z,46.83
2023-05-06T18:17:37.349Z,47.12
2023-05-06T18:20:06.683Z,47.03
2023-05-06T18:22:35.192Z,46.95
2023-05-06T18:25:04.590Z,47.35
2023-05-06T18:27:32.889Z,47.57
2023-05-06T18:30:01.109Z,47.74
2023-05-06T18:32:29.192Z,48.07
2023-05-06T18:34:57.713Z,47.99
2023-05-06T18:37:29.107Z,48.25
2023-05-06T18:39:57.219Z,48.43
2023-05-06T18:42:27.624Z,48.78
2023-05-06T18:44:56.584Z,49.41
2023-05-06T18:47:25.882Z,49.33
2023-05-06T18:49:54.103Z,49.12
2023-05-06T18:52:22.237Z,49.27
2023-05-06T18:54:50.396Z,49.42
2023-05-06T18:57:19.723Z,49.46
2023-05-06T18:59:47.939Z,49.69
2023-05-06T19:02:16.099Z,49.77
2023-05-06T19:04:44.425Z,49.71
2023-05-06T19:07:14.339Z,49.93
2023-05-06T19:09:43.749Z,49.88
2023-05-06T19:12:11.913Z,49.92
2023-05-06T19:14:40.081Z,49.85
2023-05-06T19:17:08.392Z,49.71
2023-05-06T19:19:36.819Z,49.80
2023-05-06T19:22:04.983Z,50.04
2023-05-06T19:24:33.332Z,50.38
2023-05-06T19:27:02.021Z,50.08
2023-05-06T19:29:30.141Z,49.93
2023-05-06T19:31:58.721Z,49.84
2023-05-06T19:34:26.963Z,49.74
2023-05-06T19:36:55.720Z,49.82
2023-05-06T19:39:23.869Z,49.76
2023-05-06T19:41:53.886Z,49.79
2023-05-06T19:44:22.118Z,49.87
2023-05-06T19:46:54.627Z,50.09
2023-05-06T19:49:22.881Z,50.00
2023-05-06T19:51:51.051Z,50.52
2023-05-06T19:54:19.965Z,50.12
2023-05-06T19:56:48.064Z,49.92
2023-05-06T19:59:17.639Z,49.76
2023-05-06T20:01:45.723Z,49.90
2023-05-06T20:04:13.838Z,49.72
2023-05-06T20:06:42.448Z,49.66
2023-05-06T20:09:10.499Z,49.64
2023-05-06T20:11:38.684Z,49.63
2023-05-06T20:14:06.796Z,49.70
2023-05-06T20:16:34.951Z,49.56
2023-05-06T20:19:03.131Z,49.47
2023-05-06T20:21:31.611Z,49.43
2023-05-06T20:23:59.703Z,49.44
2023-05-06T20:26:27.970Z,49.80
2023-05-06T20:28:56.035Z,50.14
2023-05-06T20:31:24.163Z,49.73
2023-05-06T20:33:52.418Z,49.75
2023-05-06T20:36:21.154Z,49.97
2023-05-06T20:38:50.405Z,50.05
2023-05-06T20:41:18.677Z,50.11
2023-05-06T20:43:46.742Z,50.13
2023-05-06T20:46:14.880Z,50.33
2023-05-06T20:48:43.007Z,50.55
2023-05-06T20:51:11.127Z,50.66
2023-05-06T20:53:40.036Z,50.66
2023-05-06T20:56:17.179Z,50.76
2023-05-06T20:58:45.321Z,51.16
2023-05-06T21:01:15.664Z,50.76
2023-05-06T21:03:46.280Z,50.91
2023-05-06T21:06:16.497Z,50.83
2023-05-06T21:08:45.662Z,51.10
2023-05-06T21:11:14.343Z,51.31
2023-05-06T21:13:42.524Z,51.20
2023-05-06T21:16:10.650Z,51.19
2023-05-06T21:18:38.878Z,51.31
2023-05-06T21:21:07.065Z,51.22
2023-05-06T21:23:35.611Z,51.62
2023-05-06T21:26:04.008Z,51.27
2023-05-06T21:28:32.188Z,51.51
2023-05-06T21:31:00.446Z,51.43
2023-05-06T21:33:28.804Z,51.49
2023-05-06T21:35:57.047Z,51.97
2023-05-06T21:38:27.804Z,51.96
2023-05-06T21:40:56.049Z,51.65
2023-05-06T21:43:24.281Z,51.90
2023-05-06T21:45:52.529Z,51.96
2023-05-06T21:48:20.704Z,52.07
2023-05-06T21:50:48.852Z,52.02
2023-05-06T21:53:17.106Z,52.22
2023-05-06T21:55:45.201Z,52.30
2023-05-06T21:58:13.477Z,52.23
2023-05-06T22:00:41.972Z,52.39
2023-05-06T22:03:10.153Z,52.29
2023-05-06T22:05:38.742Z,52.27
2023-05-06T22:08:06.970Z,52.08
2023-05-06T22:10:37.436Z,53.43
2023-05-06T22:13:05.603Z,52.93
2023-05-06T22:15:33.776Z,52.43
2023-05-06T22:18:01.908Z,53.69
2023-05-06T22:20:30.824Z,52.93
2023-05-06T22:22:58.908Z,52.76
2023-05-06T22:25:27.104Z,52.43
2023-05-06T22:27:55.280Z,52.20
2023-05-06T22:30:23.522Z,52.17
2023-05-06T22:32:51.622Z,52.14
2023-05-06T22:35:19.754Z,52.24
2023-05-06T22:37:48.691Z,53.18
2023-05-06T22:40:16.812Z,52.36
2023-05-06T22:42:45.065Z,52.13
2023-05-06T22:45:13.242Z,52.23
2023-05-06T22:47:41.691Z,52.07
2023-05-06T22:50:10.341Z,51.66
2023-05-06T22:52:39.081Z,51.90
2023-05-06T22:55:09.848Z,52.64
2023-05-06T22:57:38.379Z,52.55
2023-05-06T23:00:08.418Z,52.13
2023-05-06T23:02:37.346Z,51.74
2023-05-06T23:05:06.696Z,51.85
2023-05-06T23:07:35.356Z,51.74
2023-05-06T23:10:03.676Z,52.15
2023-05-06T23:12:32.909Z,51.60
2023-05-06T23:15:01.247Z,51.67
2023-05-06T23:17:29.446Z,51.66
2023-05-06T23:19:59.303Z,51.76
2023-05-06T23:22:27.625Z,51.37
2023-05-06T23:24:56.186Z,51.31
2023-05-06T23:27:24.692Z,51.50
2023-05-06T23:29:53.238Z,51.86
2023-05-06T23:32:21.622Z,52.14
2023-05-06T23:34:50.092Z,51.56
2023-05-06T23:37:18.671Z,51.85
2023-05-06T23:39:47.866Z,51.72
2023-05-06T23:42:16.071Z,51.84
2023-05-06T23:44:44.207Z,51.75
2023-05-06T23:47:12.404Z,52.01
2023-05-06T23:49:40.554Z,52.02
2023-05-06T23:52:08.840Z,51.95
2023-05-06T23:54:37.416Z,51.76
2023-05-06T23:57:05.692Z,52.16
2023-05-06T23:59:33.964Z,52.36
